Time;durP1;ratioP1;P1;durP2;ratioP2;P2;SDS_P1;SDS_P2;PMS_P1;PMS_P2;Temp;Humidity;BMP_temperature;BMP_pressure;BME280_temperature;BME280_humidity;BME280_pressure;Samples;Min_cycle;Max_cycle;Signal;HPM_P1;HPM_P2
2022/11/12 00:01:59;;;;;;;15.80;7.82;;;;;;;;;;4990338;28;20286;-65
2022/11/12 00:04:24;;;;;;;10.97;6.73;;;;;;;;;;4990187;28;20064;-71
2022/11/12 00:06:49;;;;;;;12.53;7.37;;;;;;;;;;4991585;28;20277;-66
2022/11/12 00:09:14;;;;;;;14.67;7.07;;;;;;;;;;4989645;28;20285;-68
2022/11/12 00:11:40;;;;;;;19.00;7.57;;;;;;;;;;4990485;28;20758;-70
2022/11/12 00:14:05;;;;;;;14.25;7.15;;;;;;;;;;4992847;28;20283;-66
2022/11/12 00:16:30;;;;;;;12.43;6.53;;;;;;;;;;4990095;28;20026;-68
2022/11/12 00:18:55;;;;;;;15.80;7.60;;;;;;;;;;4990027;28;20155;-65
2022/11/12 00:21:20;;;;;;;11.90;6.47;;;;;;;;;;4989839;28;20277;-69
2022/11/12 00:23:45;;;;;;;15.80;7.23;;;;;;;;;;4989620;28;20315;-65
2022/11/12 00:26:11;;;;;;;10.23;6.07;;;;;;;;;;4990187;28;20396;-66
2022/11/12 00:28:36;;;;;;;12.15;6.60;;;;;;;;;;4990400;28;20270;-65
2022/11/12 00:31:05;;;;;;;13.13;6.07;;;;;;;;;;4990226;28;20028;-66
2022/11/12 00:33:31;;;;;;;12.43;6.23;;;;;;;;;;4989433;28;20034;-70
2022/11/12 00:35:58;;;;;;;13.87;5.53;;;;;;;;;;4989990;28;20030;-66
2022/11/12 00:38:23;;;;;;;11.95;5.35;;;;;;;;;;4989900;28;20300;-68
2022/11/12 00:40:48;;;;;;;18.03;6.40;;;;;;;;;;4988587;28;20026;-67
2022/11/12 00:43:13;;;;;;;18.60;6.43;;;;;;;;;;4989233;28;22564;-66
2022/11/12 00:45:38;;;;;;;12.13;5.90;;;;;;;;;;4987177;28;20042;-66
2022/11/12 00:48:03;;;;;;;14.73;5.70;;;;;;;;;;4988820;28;20332;-66
2022/11/12 00:50:29;;;;;;;18.90;5.40;;;;;;;;;;4989508;28;20285;-66
2022/11/12 00:52:54;;;;;;;10.88;5.65;;;;;;;;;;4989445;28;20018;-67
2022/11/12 00:55:19;;;;;;;11.87;5.60;;;;;;;;;;4987320;28;20030;-66
2022/11/12 00:57:44;;;;;;;12.67;6.33;;;;;;;;;;4989208;28;20285;-66
2022/11/12 01:00:13;;;;;;;14.37;5.83;;;;;;;;;;4994467;28;20316;-69
2022/11/12 01:02:38;;;;;;;10.93;5.65;;;;;;;;;;4988890;28;20733;-67
2022/11/12 01:05:04;;;;;;;12.27;5.73;;;;;;;;;;4999633;28;20104;-69
2022/11/12 01:07:29;;;;;;;15.05;5.72;;;;;;;;;;4993456;28;20301;-66
2022/11/12 01:09:54;;;;;;;10.82;5.72;;;;;;;;;;4998456;28;20022;-68
2022/11/12 01:12:19;;;;;;;10.82;5.32;;;;;;;;;;4998143;28;20032;-67
2022/11/12 01:14:44;;;;;;;10.05;5.63;;;;;;;;;;4990471;28;20033;-66
2022/11/12 01:17:10;;;;;;;11.23;5.70;;;;;;;;;;4992837;28;20053;-65
2022/11/12 01:19:35;;;;;;;10.10;4.83;;;;;;;;;;4998924;28;20304;-65
2022/11/12 01:22:00;;;;;;;12.70;6.27;;;;;;;;;;5001105;28;20276;-66
2022/11/12 01:24:25;;;;;;;12.45;4.53;;;;;;;;;;4992817;28;20420;-66
2022/11/12 01:26:50;;;;;;;11.02;5.15;;;;;;;;;;4997538;28;20475;-68
2022/11/12 01:29:16;;;;;;;9.68;5.05;;;;;;;;;;4989188;28;20495;-65
2022/11/12 01:31:41;;;;;;;17.63;5.00;;;;;;;;;;4991195;28;20081;-69
2022/11/12 01:34:07;;;;;;;6.90;3.87;;;;;;;;;;4996172;28;20058;-66
2022/11/12 01:36:34;;;;;;;12.38;5.65;;;;;;;;;;4988734;28;20363;-67
2022/11/12 01:38:59;;;;;;;14.75;5.20;;;;;;;;;;4985458;28;20479;-68
2022/11/12 01:41:27;;;;;;;10.43;6.20;;;;;;;;;;4987840;28;20057;-65
2022/11/12 01:44:11;;;;;;;11.10;5.63;;;;;;;;;;4989059;28;20137;-67
2022/11/12 01:46:39;;;;;;;15.57;6.20;;;;;;;;;;4986414;28;20022;-70
2022/11/12 01:49:08;;;;;;;19.17;8.05;;;;;;;;;;4990684;28;20452;-66
2022/11/12 01:51:36;;;;;;;11.60;5.70;;;;;;;;;;4989369;28;20022;-69
2022/11/12 01:54:03;;;;;;;12.27;5.47;;;;;;;;;;4989622;28;20764;-67
2022/11/12 01:56:29;;;;;;;12.80;5.88;;;;;;;;;;4989248;28;20038;-66
2022/11/12 01:58:57;;;;;;;11.02;5.20;;;;;;;;;;4989571;28;20022;-66
2022/11/12 02:01:22;;;;;;;8.50;5.00;;;;;;;;;;4987537;28;20037;-67
2022/11/12 02:03:47;;;;;;;14.80;5.47;;;;;;;;;;4990473;28;20018;-65
2022/11/12 02:06:14;;;;;;;15.73;6.35;;;;;;;;;;4989362;28;20773;-65
2022/11/12 02:08:39;;;;;;;11.40;5.65;;;;;;;;;;4992236;28;20069;-68
2022/11/12 02:11:18;;;;;;;10.50;5.03;;;;;;;;;;4988279;28;20069;-66
2022/11/12 02:14:02;;;;;;;11.98;5.72;;;;;;;;;;4989896;28;20531;-66
2022/11/12 02:16:27;;;;;;;11.65;5.38;;;;;;;;;;4988176;28;20479;-67
2022/11/12 02:18:53;;;;;;;12.48;5.63;;;;;;;;;;4990549;28;20057;-68
2022/11/12 02:21:22;;;;;;;13.13;5.93;;;;;;;;;;4987851;28;20631;-66
2022/11/12 02:23:55;;;;;;;12.95;5.57;;;;;;;;;;4989304;28;20461;-65
2022/11/12 02:26:21;;;;;;;10.60;5.75;;;;;;;;;;4989675;28;20030;-69
2022/11/12 02:28:46;;;;;;;9.13;5.20;;;;;;;;;;4990607;28;20117;-65
2022/11/12 02:31:11;;;;;;;8.97;5.77;;;;;;;;;;4987703;28;20400;-66
2022/11/12 02:33:36;;;;;;;11.97;5.20;;;;;;;;;;4990271;28;20278;-66
2022/11/12 02:36:01;;;;;;;9.60;5.53;;;;;;;;;;4990139;28;20269;-65
2022/11/12 02:38:27;;;;;;;17.60;6.15;;;;;;;;;;4991532;28;20277;-65
2022/11/12 02:40:52;;;;;;;9.47;5.33;;;;;;;;;;4994195;28;20029;-66
2022/11/12 02:43:17;;;;;;;9.57;5.13;;;;;;;;;;4991700;28;20301;-68
2022/11/12 02:45:42;;;;;;;13.02;5.68;;;;;;;;;;4992510;28;20506;-65
2022/11/12 02:48:07;;;;;;;13.10;6.70;;;;;;;;;;4993158;28;20448;-67
2022/11/12 02:50:32;;;;;;;10.97;5.43;;;;;;;;;;4993094;28;20273;-72
2022/11/12 02:52:58;;;;;;;12.77;5.40;;;;;;;;;;4994003;28;20675;-65
2022/11/12 02:55:23;;;;;;;9.30;5.20;;;;;;;;;;4992718;28;20356;-66
2022/11/12 02:57:48;;;;;;;10.00;5.40;;;;;;;;;;4991931;28;20285;-66
2022/11/12 03:00:13;;;;;;;11.50;5.80;;;;;;;;;;4993168;28;20424;-67
2022/11/12 03:02:41;;;;;;;11.07;5.90;;;;;;;;;;4992697;28;20281;-66
2022/11/12 03:05:10;;;;;;;14.07;5.38;;;;;;;;;;4990643;28;20410;-66
2022/11/12 03:07:35;;;;;;;13.60;5.18;;;;;;;;;;4992692;28;20023;-71
2022/11/12 03:10:00;;;;;;;10.98;5.50;;;;;;;;;;4992956;28;20418;-69
2022/11/12 03:12:25;;;;;;;10.32;4.60;;;;;;;;;;4988865;28;20483;-65
2022/11/12 03:14:50;;;;;;;16.40;5.37;;;;;;;;;;4992226;28;20081;-67
2022/11/12 03:17:15;;;;;;;10.40;5.50;;;;;;;;;;4992217;28;20439;-65
2022/11/12 03:19:41;;;;;;;11.23;5.57;;;;;;;;;;4993313;28;20030;-65
2022/11/12 03:22:06;;;;;;;9.23;5.43;;;;;;;;;;4992816;28;20084;-66
2022/11/12 03:24:31;;;;;;;15.97;4.87;;;;;;;;;;4992390;28;20292;-65
2022/11/12 03:26:57;;;;;;;10.32;5.63;;;;;;;;;;4991466;28;20798;-66
2022/11/12 03:29:22;;;;;;;9.18;5.43;;;;;;;;;;4993668;28;20494;-65
2022/11/12 03:31:47;;;;;;;11.18;5.55;;;;;;;;;;4992393;28;20018;-65
2022/11/12 03:34:13;;;;;;;13.18;6.05;;;;;;;;;;4993551;28;20030;-65
2022/11/12 03:36:38;;;;;;;13.18;5.60;;;;;;;;;;4990927;28;20042;-66
2022/11/12 03:39:03;;;;;;;11.45;5.97;;;;;;;;;;4992043;28;20475;-69
2022/11/12 03:41:28;;;;;;;8.32;4.75;;;;;;;;;;4993332;28;20048;-66
2022/11/12 03:43:53;;;;;;;9.93;5.30;;;;;;;;;;4992961;28;20030;-66
2022/11/12 03:49:21;;;;;;;9.70;4.45;;;;;;;;;;4990782;28;20261;-68
2022/11/12 03:51:47;;;;;;;8.55;4.82;;;;;;;;;;4992277;28;20487;-66
2022/11/12 03:54:12;;;;;;;9.07;4.80;;;;;;;;;;4991016;28;20030;-66
2022/11/12 03:56:37;;;;;;;15.85;5.20;;;;;;;;;;4992118;28;20281;-65
2022/11/12 03:59:03;;;;;;;10.18;4.95;;;;;;;;;;4992099;28;20045;-65
2022/11/12 04:01:28;;;;;;;11.30;4.63;;;;;;;;;;4992050;28;20448;-69
2022/11/12 04:03:53;;;;;;;11.13;4.60;;;;;;;;;;4991195;28;20029;-68
2022/11/12 04:09:02;;;;;;;14.95;5.03;;;;;;;;;;4991153;28;20831;-68
2022/11/12 04:11:27;;;;;;;12.40;4.65;;;;;;;;;;4989238;28;20026;-65
2022/11/12 04:13:53;;;;;;;10.90;4.57;;;;;;;;;;4990122;28;20497;-68
2022/11/12 04:21:54;;;;;;;12.80;5.57;;;;;;;;;;4989530;28;20049;-66
2022/11/12 04:27:13;;;;;;;13.13;5.18;;;;;;;;;;4990479;28;20173;-65
2022/11/12 04:32:24;;;;;;;10.90;6.15;;;;;;;;;;4989231;28;20033;-65
2022/11/12 04:34:49;;;;;;;13.63;5.53;;;;;;;;;;4992709;28;20026;-70
2022/11/12 04:37:14;;;;;;;9.88;5.30;;;;;;;;;;4990540;28;20156;-65
2022/11/12 04:39:39;;;;;;;12.70;5.63;;;;;;;;;;4990459;28;20402;-69
2022/11/12 04:45:04;;;;;;;15.45;5.13;;;;;;;;;;4992226;28;20292;-65
2022/11/12 04:47:32;;;;;;;13.25;5.75;;;;;;;;;;4989971;28;20073;-65
2022/11/12 04:49:57;;;;;;;10.05;5.38;;;;;;;;;;4990876;28;20023;-66
2022/11/12 04:52:23;;;;;;;11.00;5.78;;;;;;;;;;4989273;28;20037;-65
2022/11/12 04:54:48;;;;;;;10.23;5.18;;;;;;;;;;4992156;28;20049;-68
2022/11/12 04:57:14;;;;;;;12.82;5.20;;;;;;;;;;4990756;28;20506;-65
2022/11/12 04:59:39;;;;;;;15.33;6.00;;;;;;;;;;4989426;28;20054;-67
2022/11/12 05:02:04;;;;;;;9.80;5.28;;;;;;;;;;4988958;28;20281;-68
2022/11/12 05:04:29;;;;;;;19.15;6.20;;;;;;;;;;4990351;28;20309;-68
2022/11/12 05:06:55;;;;;;;14.25;6.65;;;;;;;;;;4992194;28;20266;-67
2022/11/12 05:09:21;;;;;;;11.30;5.50;;;;;;;;;;4991037;28;20030;-66
2022/11/12 05:11:47;;;;;;;11.82;5.53;;;;;;;;;;4989763;28;20031;-68
2022/11/12 05:14:12;;;;;;;13.15;6.28;;;;;;;;;;4991692;28;20105;-66
2022/11/12 05:16:38;;;;;;;10.48;5.70;;;;;;;;;;4989758;28;20395;-66
2022/11/12 05:19:03;;;;;;;10.20;4.85;;;;;;;;;;4991687;28;20024;-67
2022/11/12 05:24:12;;;;;;;10.82;5.25;;;;;;;;;;4989184;28;20041;-69
2022/11/12 05:26:37;;;;;;;10.65;5.00;;;;;;;;;;4989875;28;20018;-66
2022/11/12 05:29:02;;;;;;;15.02;6.00;;;;;;;;;;4992091;28;20014;-68
2022/11/12 05:31:28;;;;;;;11.55;5.88;;;;;;;;;;4990451;28;20030;-68
2022/11/12 05:33:53;;;;;;;10.23;4.80;;;;;;;;;;4991493;28;20022;-67
2022/11/12 05:36:18;;;;;;;19.35;5.22;;;;;;;;;;4990502;28;20339;-65
2022/11/12 05:38:43;;;;;;;13.77;4.47;;;;;;;;;;4990156;28;20129;-69
2022/11/12 05:41:08;;;;;;;12.33;5.57;;;;;;;;;;4988506;28;20269;-66
2022/11/12 05:43:33;;;;;;;8.23;4.68;;;;;;;;;;4990694;28;20372;-71
2022/11/12 05:45:58;;;;;;;8.05;4.85;;;;;;;;;;4986601;28;20281;-71
2022/11/12 05:48:24;;;;;;;10.68;4.75;;;;;;;;;;4989221;28;20608;-69
2022/11/12 05:50:49;;;;;;;9.33;5.13;;;;;;;;;;4988513;28;20026;-66
2022/11/12 05:53:15;;;;;;;12.55;4.85;;;;;;;;;;4990816;28;20257;-65
2022/11/12 05:55:40;;;;;;;9.13;5.22;;;;;;;;;;4988563;28;20037;-67
2022/11/12 05:58:05;;;;;;;17.70;5.63;;;;;;;;;;4988835;28;20072;-66
2022/11/12 06:00:30;;;;;;;9.52;4.30;;;;;;;;;;4989736;28;20368;-66
2022/11/12 06:02:56;;;;;;;16.10;5.07;;;;;;;;;;4990168;28;20393;-66
2022/11/12 06:05:21;;;;;;;8.52;5.13;;;;;;;;;;4989116;28;20491;-66
2022/11/12 06:07:47;;;;;;;10.27;4.78;;;;;;;;;;4989375;28;20033;-66
2022/11/12 06:10:12;;;;;;;13.70;4.67;;;;;;;;;;4988016;28;20290;-66
2022/11/12 06:12:37;;;;;;;10.67;4.93;;;;;;;;;;4990549;28;20268;-66
2022/11/12 06:15:02;;;;;;;9.73;4.70;;;;;;;;;;4986853;28;20290;-69
2022/11/12 06:17:27;;;;;;;9.20;4.70;;;;;;;;;;4989508;28;20281;-70
2022/11/12 06:19:53;;;;;;;10.13;4.70;;;;;;;;;;4989279;28;20061;-72
2022/11/12 06:22:18;;;;;;;10.95;4.38;;;;;;;;;;4989306;28;20384;-68
2022/11/12 06:24:43;;;;;;;11.35;4.85;;;;;;;;;;4988544;28;20041;-67
2022/11/12 06:27:08;;;;;;;12.82;5.18;;;;;;;;;;4989475;28;20030;-69
2022/11/12 06:29:33;;;;;;;12.47;5.13;;;;;;;;;;4989679;28;20039;-67
2022/11/12 06:31:58;;;;;;;12.38;5.22;;;;;;;;;;4989818;28;20269;-68
2022/11/12 06:34:24;;;;;;;12.63;5.07;;;;;;;;;;4988548;28;20681;-67
2022/11/12 06:36:49;;;;;;;15.70;4.90;;;;;;;;;;4990254;28;20092;-69
2022/11/12 06:39:14;;;;;;;11.75;5.75;;;;;;;;;;4988940;28;20460;-66
2022/11/12 06:41:39;;;;;;;13.15;5.57;;;;;;;;;;4992060;28;20030;-68
2022/11/12 06:44:04;;;;;;;13.40;5.10;;;;;;;;;;4988915;28;20042;-66
2022/11/12 06:46:30;;;;;;;9.85;5.30;;;;;;;;;;4990315;28;20059;-70
2022/11/12 06:48:55;;;;;;;12.43;6.10;;;;;;;;;;4989866;28;20034;-65
2022/11/12 06:51:20;;;;;;;14.48;5.88;;;;;;;;;;4990126;28;20784;-67
2022/11/12 06:53:46;;;;;;;14.65;6.35;;;;;;;;;;4988474;28;20026;-65
2022/11/12 06:56:11;;;;;;;15.77;6.18;;;;;;;;;;4988855;28;20022;-65
2022/11/12 06:58:37;;;;;;;14.32;5.45;;;;;;;;;;4989454;28;20505;-65
2022/11/12 07:01:03;;;;;;;11.40;4.68;;;;;;;;;;4988503;28;20026;-65
2022/11/12 07:03:28;;;;;;;16.42;5.22;;;;;;;;;;4989356;28;20041;-65
2022/11/12 07:05:53;;;;;;;12.60;5.80;;;;;;;;;;4987601;28;20085;-67
2022/11/12 07:08:18;;;;;;;14.82;5.88;;;;;;;;;;4989171;28;20278;-68
2022/11/12 07:10:43;;;;;;;11.93;5.13;;;;;;;;;;4988347;28;20408;-65
2022/11/12 07:13:08;;;;;;;10.37;5.37;;;;;;;;;;4989283;28;20026;-66
2022/11/12 07:15:34;;;;;;;10.30;5.40;;;;;;;;;;4987825;28;20285;-65
2022/11/12 07:17:59;;;;;;;12.93;5.77;;;;;;;;;;4988917;28;20638;-65
2022/11/12 07:20:24;;;;;;;12.20;5.53;;;;;;;;;;4989282;28;20372;-66
2022/11/12 07:22:49;;;;;;;12.20;5.70;;;;;;;;;;4988881;28;20282;-68
2022/11/12 07:25:14;;;;;;;16.40;6.70;;;;;;;;;;4992324;28;20328;-68
2022/11/12 07:27:40;;;;;;;11.15;5.93;;;;;;;;;;4994623;28;20050;-65
2022/11/12 07:30:05;;;;;;;11.53;6.23;;;;;;;;;;4991779;28;20069;-65
2022/11/12 07:32:30;;;;;;;12.90;6.28;;;;;;;;;;4990472;28;20782;-65
2022/11/12 07:34:55;;;;;;;12.63;5.93;;;;;;;;;;4993428;28;20045;-66
2022/11/12 07:37:21;;;;;;;12.50;6.10;;;;;;;;;;4990324;28;20295;-65
2022/11/12 07:39:46;;;;;;;14.27;6.15;;;;;;;;;;4991323;28;20509;-66
2022/11/12 07:42:11;;;;;;;17.17;6.57;;;;;;;;;;4993434;28;20072;-68
2022/11/12 07:44:36;;;;;;;17.75;5.60;;;;;;;;;;4990970;28;20372;-66
2022/11/12 07:47:01;;;;;;;15.63;6.22;;;;;;;;;;4992075;28;20045;-67
2022/11/12 07:49:26;;;;;;;8.85;4.70;;;;;;;;;;4992056;28;20045;-66
2022/11/12 07:51:52;;;;;;;9.20;5.27;;;;;;;;;;4991180;28;20026;-71
2022/11/12 07:54:17;;;;;;;10.93;5.87;;;;;;;;;;4989766;28;20789;-66
2022/11/12 07:56:42;;;;;;;10.80;5.00;;;;;;;;;;4991954;28;20360;-69
2022/11/12 07:59:07;;;;;;;10.50;5.20;;;;;;;;;;4994103;28;20683;-66
2022/11/12 08:01:33;;;;;;;8.33;4.90;;;;;;;;;;4993733;28;20323;-68
2022/11/12 08:04:00;;;;;;;9.05;4.43;;;;;;;;;;4993790;28;20400;-68
2022/11/12 08:06:25;;;;;;;10.07;4.85;;;;;;;;;;4989476;28;20069;-70
2022/11/12 08:08:51;;;;;;;9.60;4.15;;;;;;;;;;4992619;28;20053;-70
2022/11/12 08:11:17;;;;;;;11.05;4.40;;;;;;;;;;4991539;28;20025;-70
2022/11/12 08:13:42;;;;;;;8.75;4.20;;;;;;;;;;4993150;28;20515;-66
2022/11/12 08:16:07;;;;;;;7.30;3.80;;;;;;;;;;4989843;28;20026;-70
2022/11/12 08:18:33;;;;;;;9.15;3.88;;;;;;;;;;4991083;28;20062;-70
2022/11/12 08:21:02;;;;;;;12.05;5.18;;;;;;;;;;4991481;28;20023;-66
2022/11/12 08:23:27;;;;;;;9.35;4.05;;;;;;;;;;4990892;28;20133;-70
2022/11/12 08:25:56;;;;;;;8.38;3.38;;;;;;;;;;4987820;28;20036;-66
2022/11/12 08:28:21;;;;;;;7.65;3.90;;;;;;;;;;4992782;28;20108;-68
2022/11/12 08:30:46;;;;;;;5.60;3.20;;;;;;;;;;4990117;28;20391;-66
2022/11/12 08:33:11;;;;;;;8.67;4.10;;;;;;;;;;4992608;28;20265;-71
2022/11/12 08:35:37;;;;;;;7.15;3.85;;;;;;;;;;4986762;28;20281;-67
2022/11/12 08:38:09;;;;;;;7.67;3.67;;;;;;;;;;4990170;28;20042;-68
2022/11/12 08:40:35;;;;;;;8.13;3.83;;;;;;;;;;4988248;28;20278;-66
2022/11/12 08:43:01;;;;;;;12.90;4.32;;;;;;;;;;4992592;28;20041;-67
2022/11/12 08:45:27;;;;;;;9.98;3.60;;;;;;;;;;4991986;28;20532;-68
2022/11/12 08:47:52;;;;;;;11.15;3.60;;;;;;;;;;4993096;28;20014;-67
2022/11/12 08:50:17;;;;;;;11.90;4.15;;;;;;;;;;4992521;28;20414;-67
2022/11/12 08:52:43;;;;;;;7.22;4.05;;;;;;;;;;4991291;28;20038;-68
2022/11/12 08:55:08;;;;;;;11.37;4.10;;;;;;;;;;4991670;28;20026;-70
2022/11/12 08:57:38;;;;;;;6.53;2.70;;;;;;;;;;4992581;28;20269;-68
2022/11/12 09:00:04;;;;;;;8.30;3.35;;;;;;;;;;4989744;28;20285;-71
2022/11/12 09:02:29;;;;;;;6.78;3.00;;;;;;;;;;4988205;28;20026;-67
2022/11/12 09:04:54;;;;;;;7.20;2.70;;;;;;;;;;4989009;28;20030;-69
2022/11/12 09:07:19;;;;;;;8.20;3.37;;;;;;;;;;4990373;28;20442;-67
2022/11/12 09:09:45;;;;;;;5.80;2.87;;;;;;;;;;4990572;28;20026;-68
2022/11/12 09:12:17;;;;;;;6.00;2.60;;;;;;;;;;4990243;28;20018;-70
2022/11/12 09:14:42;;;;;;;8.02;3.00;;;;;;;;;;4988356;28;20410;-67
2022/11/12 09:17:07;;;;;;;7.90;3.53;;;;;;;;;;4991208;28;20462;-67
2022/11/12 09:19:32;;;;;;;7.67;2.90;;;;;;;;;;4989496;28;20030;-69
2022/11/12 09:21:57;;;;;;;6.60;3.87;;;;;;;;;;4989121;28;20109;-67
2022/11/12 09:24:22;;;;;;;8.50;3.10;;;;;;;;;;4986613;28;20151;-67
2022/11/12 09:26:51;;;;;;;6.70;3.13;;;;;;;;;;4992795;28;20214;-66
2022/11/12 09:29:16;;;;;;;11.27;3.08;;;;;;;;;;4989422;28;20275;-66
2022/11/12 09:31:41;;;;;;;6.23;2.83;;;;;;;;;;4986450;28;20523;-68
2022/11/12 09:34:06;;;;;;;4.17;2.07;;;;;;;;;;4990267;28;20501;-66
2022/11/12 09:36:31;;;;;;;5.73;2.50;;;;;;;;;;4990592;28;20407;-71
2022/11/12 09:38:56;;;;;;;5.43;2.53;;;;;;;;;;4992663;28;20635;-66
2022/11/12 09:41:24;;;;;;;9.37;2.87;;;;;;;;;;4986586;28;20428;-69
2022/11/12 09:43:51;;;;;;;2.70;1.40;;;;;;;;;;4993749;28;20457;-67
2022/11/12 09:46:24;;;;;;;5.07;1.77;;;;;;;;;;4984506;28;20656;-67
2022/11/12 09:48:52;;;;;;;3.90;1.80;;;;;;;;;;4993308;28;20025;-66
2022/11/12 09:51:29;;;;;;;7.13;2.22;;;;;;;;;;4990897;28;20026;-66
2022/11/12 09:53:56;;;;;;;15.90;1.95;;;;;;;;;;4989247;28;20045;-70
2022/11/12 09:56:22;;;;;;;5.72;2.67;;;;;;;;;;4990255;28;20042;-66
2022/11/12 09:58:48;;;;;;;3.88;2.17;;;;;;;;;;4990873;28;20600;-66
2022/11/12 10:01:13;;;;;;;8.85;2.40;;;;;;;;;;4988557;28;20038;-66
2022/11/12 10:03:45;;;;;;;6.50;3.00;;;;;;;;;;4988735;28;20387;-68
2022/11/12 10:06:14;;;;;;;5.20;2.47;;;;;;;;;;4990882;28;20029;-71
2022/11/12 10:08:57;;;;;;;7.82;2.47;;;;;;;;;;4987659;28;20065;-70
2022/11/12 10:12:30;;;;;;;7.13;3.42;;;;;;;;;;4989263;28;20503;-66
2022/11/12 10:14:35;;;;;;;15.45;3.28;;;;;;;;;;4988031;28;20046;-66
2022/11/12 10:17:29;;;;;;;10.32;3.33;;;;;;;;;;4988629;28;20015;-66
2022/11/12 10:20:03;;;;;;;8.32;3.25;;;;;;;;;;4975836;28;20042;-66
2022/11/12 10:22:37;;;;;;;5.57;2.47;;;;;;;;;;4986685;28;20391;-68
2022/11/12 10:25:14;;;;;;;6.95;2.22;;;;;;;;;;4989746;28;21499;-66
2022/11/12 10:27:40;;;;;;;6.85;2.83;;;;;;;;;;4990019;28;20423;-68
2022/11/12 10:30:12;;;;;;;8.77;2.92;;;;;;;;;;4989072;28;20438;-69
2022/11/12 10:32:41;;;;;;;4.93;2.08;;;;;;;;;;4990661;28;20034;-66
2022/11/12 10:35:06;;;;;;;4.70;2.92;;;;;;;;;;4989103;28;20030;-68
2022/11/12 10:37:41;;;;;;;10.05;3.40;;;;;;;;;;4991689;28;20037;-66
2022/11/12 10:40:25;;;;;;;10.20;3.40;;;;;;;;;;4987874;28;20037;-67
2022/11/12 10:42:55;;;;;;;8.30;3.58;;;;;;;;;;4988823;28;20034;-69
2022/11/12 10:45:21;;;;;;;9.82;3.50;;;;;;;;;;4989141;28;20030;-68
2022/11/12 10:47:46;;;;;;;4.57;2.58;;;;;;;;;;4989183;28;20046;-68
2022/11/12 10:50:11;;;;;;;9.90;4.10;;;;;;;;;;4986133;28;20022;-66
2022/11/12 10:52:37;;;;;;;5.38;2.58;;;;;;;;;;4987710;28;20317;-66
2022/11/12 10:55:19;;;;;;;7.80;3.20;;;;;;;;;;4987705;28;20023;-69
2022/11/12 10:57:44;;;;;;;12.38;4.18;;;;;;;;;;4992329;28;20029;-66
2022/11/12 11:00:12;;;;;;;7.83;3.27;;;;;;;;;;4992872;28;20035;-67
2022/11/12 11:02:50;;;;;;;6.88;4.40;;;;;;;;;;4992990;28;20277;-66
2022/11/12 11:05:35;;;;;;;8.25;4.57;;;;;;;;;;4990660;28;20026;-66
2022/11/12 11:08:02;;;;;;;5.70;2.22;;;;;;;;;;4987220;28;20085;-71
2022/11/12 11:10:29;;;;;;;8.65;3.03;;;;;;;;;;4991006;28;20026;-71
2022/11/12 11:13:16;;;;;;;9.10;4.85;;;;;;;;;;4987462;28;20038;-66
2022/11/12 11:15:55;;;;;;;9.82;4.60;;;;;;;;;;4991780;28;20038;-69
2022/11/12 11:18:20;;;;;;;8.93;4.97;;;;;;;;;;4991604;28;20034;-66
2022/11/12 11:20:50;;;;;;;8.43;3.93;;;;;;;;;;4992423;28;20459;-69
2022/11/12 11:23:15;;;;;;;10.07;4.65;;;;;;;;;;4992305;28;20316;-66
2022/11/12 11:25:41;;;;;;;4.75;2.40;;;;;;;;;;4990871;28;20058;-68
2022/11/12 11:28:25;;;;;;;12.52;1.98;;;;;;;;;;4984288;28;20026;-67
2022/11/12 11:30:54;;;;;;;12.15;2.92;;;;;;;;;;4987028;28;20023;-67
2022/11/12 11:33:51;;;;;;;6.43;3.17;;;;;;;;;;4990248;28;20486;-66
2022/11/12 11:36:20;;;;;;;2.85;2.33;;;;;;;;;;4966426;28;20117;-66
2022/11/12 11:39:04;;;;;;;7.38;3.83;;;;;;;;;;4991611;28;20054;-69
2022/11/12 11:41:53;;;;;;;9.80;3.80;;;;;;;;;;4991818;28;20029;-66
2022/11/12 11:44:18;;;;;;;5.82;2.78;;;;;;;;;;4988396;28;20034;-69
2022/11/12 11:47:08;;;;;;;5.65;2.83;;;;;;;;;;4986813;28;20065;-69
2022/11/12 11:49:42;;;;;;;17.02;2.38;;;;;;;;;;4988971;28;20030;-69
2022/11/12 11:52:22;;;;;;;4.32;2.33;;;;;;;;;;4989124;28;20427;-69
2022/11/12 11:54:50;;;;;;;9.77;3.17;;;;;;;;;;4991150;28;20475;-66
2022/11/12 11:57:19;;;;;;;10.65;3.70;;;;;;;;;;4991562;28;20023;-66
2022/11/12 11:59:51;;;;;;;6.97;3.50;;;;;;;;;;4992008;28;20069;-67
2022/11/12 12:02:25;;;;;;;6.05;3.58;;;;;;;;;;4988360;28;20084;-70
2022/11/12 12:04:56;;;;;;;2.88;1.75;;;;;;;;;;4990835;28;20496;-70
2022/11/12 12:07:21;;;;;;;4.38;2.33;;;;;;;;;;4985362;28;20487;-70
2022/11/12 12:09:52;;;;;;;8.03;3.63;;;;;;;;;;4986957;28;20053;-66
2022/11/12 12:12:25;;;;;;;4.28;2.58;;;;;;;;;;4980134;28;20027;-69
2022/11/12 12:15:09;;;;;;;8.57;4.55;;;;;;;;;;4986871;28;20026;-66
2022/11/12 12:17:36;;;;;;;7.10;3.80;;;;;;;;;;4989811;28;20475;-68
2022/11/12 12:20:12;;;;;;;7.50;2.00;;;;;;;;;;4992759;28;20416;-67
2022/11/12 12:22:43;;;;;;;6.15;2.28;;;;;;;;;;4992945;28;20022;-67
2022/11/12 12:25:29;;;;;;;3.88;2.10;;;;;;;;;;4992213;28;20491;-66
2022/11/12 12:28:12;;;;;;;5.60;3.22;;;;;;;;;;4991530;28;20476;-67
2022/11/12 12:30:40;;;;;;;4.10;2.15;;;;;;;;;;4990925;28;20030;-65
2022/11/12 12:33:08;;;;;;;6.75;3.05;;;;;;;;;;4989368;28;20105;-66
2022/11/12 12:35:35;;;;;;;8.80;2.67;;;;;;;;;;4992209;28;20022;-69
2022/11/12 12:38:05;;;;;;;4.85;2.45;;;;;;;;;;4991919;28;20434;-68
2022/11/12 12:40:36;;;;;;;6.95;2.65;;;;;;;;;;4990679;28;20049;-68
2022/11/12 12:43:05;;;;;;;6.15;2.78;;;;;;;;;;4992023;28;20018;-67
2022/11/12 12:45:44;;;;;;;4.82;1.92;;;;;;;;;;4991595;28;20072;-69
2022/11/12 12:48:20;;;;;;;5.70;2.03;;;;;;;;;;4989891;28;20057;-66
2022/11/12 12:50:47;;;;;;;5.05;2.35;;;;;;;;;;4989036;28;20484;-69
2022/11/12 12:53:21;;;;;;;6.38;2.75;;;;;;;;;;4990134;28;20356;-66
2022/11/12 12:55:49;;;;;;;4.63;2.25;;;;;;;;;;4990809;28;20022;-66
2022/11/12 12:58:16;;;;;;;7.68;3.22;;;;;;;;;;4981219;28;20042;-70
2022/11/12 13:00:45;;;;;;;4.68;2.35;;;;;;;;;;4989911;28;20053;-66
2022/11/12 13:03:10;;;;;;;5.20;2.17;;;;;;;;;;4988265;28;21260;-67
2022/11/12 13:05:36;;;;;;;5.15;2.05;;;;;;;;;;4986056;28;20022;-69
2022/11/12 13:08:04;;;;;;;4.88;2.00;;;;;;;;;;4985317;28;20073;-69
2022/11/12 13:10:40;;;;;;;1.70;0.93;;;;;;;;;;4987365;28;20113;-69
2022/11/12 13:13:05;;;;;;;8.82;2.10;;;;;;;;;;4987191;28;20030;-67
2022/11/12 13:15:41;;;;;;;3.28;1.92;;;;;;;;;;4983619;28;20399;-69
2022/11/12 13:18:07;;;;;;;5.72;2.17;;;;;;;;;;4989163;28;20024;-69
2022/11/12 13:20:34;;;;;;;3.67;2.30;;;;;;;;;;4984577;28;20022;-68
2022/11/12 13:22:59;;;;;;;2.30;1.23;;;;;;;;;;4985858;28;20088;-67
2022/11/12 13:25:29;;;;;;;5.83;2.10;;;;;;;;;;4989398;28;20574;-69
2022/11/12 13:28:07;;;;;;;4.28;1.95;;;;;;;;;;4986092;28;20360;-68
2022/11/12 13:30:32;;;;;;;6.75;2.45;;;;;;;;;;4987919;28;20053;-69
2022/11/12 13:32:58;;;;;;;5.72;2.20;;;;;;;;;;4988393;28;20049;-66
2022/11/12 13:35:23;;;;;;;4.00;1.70;;;;;;;;;;4991184;28;20031;-69
2022/11/12 13:37:59;;;;;;;2.72;0.98;;;;;;;;;;4985979;28;20297;-67
2022/11/12 13:40:28;;;;;;;3.30;1.65;;;;;;;;;;4984544;28;20040;-69
2022/11/12 13:42:54;;;;;;;2.88;1.20;;;;;;;;;;4985857;28;20026;-69
2022/11/12 13:45:24;;;;;;;6.28;1.17;;;;;;;;;;4987538;28;20037;-69
2022/11/12 13:47:49;;;;;;;6.70;2.03;;;;;;;;;;4988127;28;20032;-68
2022/11/12 13:50:17;;;;;;;3.13;1.88;;;;;;;;;;4987476;28;20026;-68
2022/11/12 13:52:42;;;;;;;6.43;1.60;;;;;;;;;;4986000;28;20034;-68
2022/11/12 13:55:14;;;;;;;2.92;1.70;;;;;;;;;;4988446;28;20022;-69
2022/11/12 13:57:39;;;;;;;8.05;2.00;;;;;;;;;;4985241;28;20034;-69
2022/11/12 14:00:08;;;;;;;3.88;2.03;;;;;;;;;;4988805;28;20026;-68
2022/11/12 14:02:35;;;;;;;5.03;2.20;;;;;;;;;;4987370;28;20026;-67
2022/11/12 14:05:00;;;;;;;5.53;1.65;;;;;;;;;;4988542;28;20030;-68
2022/11/12 14:07:25;;;;;;;5.07;2.15;;;;;;;;;;4986360;28;20032;-68
2022/11/12 14:09:59;;;;;;;3.28;1.45;;;;;;;;;;4988263;28;20022;-69
2022/11/12 14:12:37;;;;;;;8.85;1.92;;;;;;;;;;4988333;28;20034;-68
2022/11/12 14:15:09;;;;;;;3.17;1.38;;;;;;;;;;4986415;28;20018;-69
2022/11/12 14:17:56;;;;;;;5.78;1.85;;;;;;;;;;4987291;28;20018;-69
2022/11/12 14:20:23;;;;;;;5.68;1.70;;;;;;;;;;4987622;28;20042;-69
2022/11/12 14:22:49;;;;;;;3.55;1.90;;;;;;;;;;4986859;28;20415;-69
2022/11/12 14:25:16;;;;;;;4.15;1.75;;;;;;;;;;4984967;28;20092;-67
2022/11/12 14:27:41;;;;;;;5.03;2.13;;;;;;;;;;4985679;28;20019;-67
2022/11/12 14:30:10;;;;;;;4.07;1.92;;;;;;;;;;4986727;28;20026;-64
2022/11/12 14:32:35;;;;;;;2.70;1.60;;;;;;;;;;4987677;28;20037;-64
2022/11/12 14:35:15;;;;;;;4.15;2.10;;;;;;;;;;4988467;28;20426;-67
2022/11/12 14:37:41;;;;;;;4.43;2.10;;;;;;;;;;4988046;28;20034;-69
2022/11/12 14:40:13;;;;;;;8.02;2.63;;;;;;;;;;4991766;28;20395;-71
2022/11/12 14:42:38;;;;;;;3.95;1.95;;;;;;;;;;4990407;28;20038;-69
2022/11/12 14:45:04;;;;;;;4.95;2.47;;;;;;;;;;4988819;28;20034;-64
2022/11/12 14:47:29;;;;;;;12.45;2.40;;;;;;;;;;4988073;28;20117;-64
2022/11/12 14:49:54;;;;;;;4.23;1.53;;;;;;;;;;4991986;28;20014;-70
2022/11/12 14:52:21;;;;;;;3.08;1.60;;;;;;;;;;4990989;28;20648;-67
2022/11/12 14:54:49;;;;;;;4.03;2.17;;;;;;;;;;4991692;28;20026;-67
2022/11/12 14:57:27;;;;;;;5.18;1.90;;;;;;;;;;4991694;28;20054;-67
2022/11/12 14:59:53;;;;;;;3.88;1.70;;;;;;;;;;4989492;28;20058;-67
2022/11/12 15:02:20;;;;;;;4.25;1.75;;;;;;;;;;4988868;28;20065;-67